Terminal Aerodrome Forecast
Issued by NWS

Home | Current Version | Previous Version | Text Only | Print | Product List | Glossary On
Versions: 1 2 3 4 5 6 7 8 9 10 11 12 13 14 15
000
FTUS46 KSGX 260520
TAFTRM
TAF
KTRM 260520Z 2606/2706 33015G25KT P6SM SKC
     FM261700 32011KT P6SM SKC
     FM262300 33012G20KT P6SM SKC=

USA.gov is the U.S. government's official web portal to all federal, state and local government web resources and services.